createdAt,value
2022-11-30T00:00:20.171Z,67.68
2022-11-30T00:02:46.892Z,61.92
2022-11-30T00:05:13.440Z,54.75
2022-11-30T00:07:39.894Z,65.07
2022-11-30T00:10:07.739Z,60.70
2022-11-30T00:12:34.157Z,61.25
2022-11-30T00:15:02.053Z,68.43
2022-11-30T00:17:28.443Z,63.15
2022-11-30T00:19:54.858Z,63.40
2022-11-30T00:22:21.531Z,62.47
2022-11-30T00:24:48.119Z,62.70
2022-11-30T00:27:14.669Z,52.97
2022-11-30T00:29:41.051Z,55.75
2022-11-30T00:32:08.778Z,53.78
2022-11-30T00:34:35.506Z,60.13
2022-11-30T00:37:01.941Z,51.80
2022-11-30T00:39:33.890Z,49.67
2022-11-30T00:42:01.889Z,52.20
2022-11-30T00:44:28.291Z,52.92
2022-11-30T00:46:54.707Z,50.67
2022-11-30T00:49:22.531Z,57.33
2022-11-30T00:51:49.209Z,53.03
2022-11-30T00:54:15.613Z,56.08
2022-11-30T00:56:42.042Z,46.92
2022-11-30T00:59:08.499Z,49.05
2022-11-30T01:01:34.932Z,54.65
2022-11-30T01:04:01.836Z,49.55
2022-11-30T01:06:29.695Z,59.53
2022-11-30T01:08:56.284Z,50.72
2022-11-30T01:11:25.315Z,49.25
2022-11-30T01:13:51.876Z,52.60
2022-11-30T01:16:20.938Z,45.35
2022-11-30T01:18:48.611Z,41.67
2022-11-30T01:21:21.665Z,49.72
2022-11-30T01:23:50.253Z,46.67
2022-11-30T01:26:17.622Z,42.22
2022-11-30T01:28:44.590Z,42.47
2022-11-30T01:31:13.559Z,44.35
2022-11-30T01:33:40.850Z,43.53
2022-11-30T01:36:10.398Z,43.05
2022-11-30T01:38:38.804Z,42.00
2022-11-30T01:44:54.398Z,40.60
2022-11-30T01:47:25.311Z,41.60
2022-11-30T01:49:55.655Z,39.95
2022-11-30T01:52:26.127Z,36.22
2022-11-30T01:54:56.450Z,47.17
2022-11-30T01:57:29.619Z,43.05
2022-11-30T02:00:00.872Z,41.35
2022-11-30T02:02:37.521Z,41.88
2022-11-30T02:05:04.789Z,44.25
2022-11-30T02:07:31.300Z,43.83
2022-11-30T02:09:57.802Z,48.78
2022-11-30T02:12:31.618Z,40.10
2022-11-30T02:17:40.539Z,41.55
2022-11-30T02:20:42.075Z,40.15
2022-11-30T02:23:40.971Z,34.67
2022-11-30T02:26:22.664Z,46.88
2022-11-30T02:29:03.791Z,40.90
2022-11-30T02:31:38.286Z,44.58
2022-11-30T02:34:08.477Z,41.13
2022-11-30T02:36:36.105Z,45.92
2022-11-30T02:39:03.854Z,41.95
2022-11-30T02:41:38.201Z,43.53
2022-11-30T02:44:10.172Z,46.75
2022-11-30T02:46:53.856Z,37.15
2022-11-30T02:49:27.015Z,39.60
2022-11-30T02:51:55.143Z,36.58
2022-11-30T02:54:21.587Z,40.83
2022-11-30T02:56:47.997Z,40.72
2022-11-30T02:59:15.858Z,37.22
2022-11-30T03:01:42.371Z,35.80
2022-11-30T03:04:08.954Z,34.65
2022-11-30T03:06:35.402Z,36.42
2022-11-30T03:09:01.992Z,38.50
2022-11-30T03:11:28.409Z,36.15
2022-11-30T03:13:55.194Z,33.75
2022-11-30T03:16:22.978Z,40.88
2022-11-30T03:18:49.415Z,34.88
2022-11-30T03:21:15.957Z,35.63
2022-11-30T03:23:42.383Z,33.45
2022-11-30T03:26:09.204Z,37.05
2022-11-30T03:28:36.423Z,35.13
2022-11-30T03:31:03.142Z,35.45
2022-11-30T03:33:30.979Z,31.88
2022-11-30T03:36:01.498Z,32.28
2022-11-30T03:38:28.324Z,32.85
2022-11-30T03:41:00.754Z,34.67
2022-11-30T03:43:27.384Z,38.05
2022-11-30T03:45:53.927Z,34.92
2022-11-30T03:48:20.515Z,33.78
2022-11-30T03:50:48.383Z,37.92
2022-11-30T03:53:14.849Z,35.13
2022-11-30T03:55:41.252Z,39.42
2022-11-30T03:58:07.670Z,36.08
2022-11-30T04:00:34.125Z,33.30
2022-11-30T04:03:00.646Z,35.90
2022-11-30T04:05:27.080Z,34.92
2022-11-30T04:07:55.065Z,34.60
2022-11-30T04:10:21.549Z,34.10
2022-11-30T04:12:47.966Z,38.33
2022-11-30T04:15:14.492Z,36.97
2022-11-30T04:17:40.921Z,40.60
2022-11-30T04:20:08.167Z,40.55
2022-11-30T04:22:34.589Z,43.10
2022-11-30T04:25:02.631Z,38.53
2022-11-30T04:27:29.381Z,44.47
2022-11-30T04:29:56.038Z,46.45
2022-11-30T04:32:22.697Z,37.70
2022-11-30T04:34:49.449Z,43.75
2022-11-30T04:37:16.059Z,39.72
2022-11-30T04:39:42.518Z,36.47
2022-11-30T04:42:10.274Z,38.75
2022-11-30T04:44:36.695Z,41.60
2022-11-30T04:47:03.261Z,44.13
2022-11-30T04:49:29.703Z,43.60
2022-11-30T04:51:56.121Z,43.13
2022-11-30T04:54:22.533Z,42.83
2022-11-30T04:56:48.964Z,48.53
2022-11-30T04:59:16.703Z,50.17
2022-11-30T05:01:43.202Z,50.75
2022-11-30T05:04:09.779Z,45.05
2022-11-30T05:06:36.297Z,46.88
2022-11-30T05:09:02.767Z,48.75
2022-11-30T05:11:29.189Z,49.42
2022-11-30T05:13:55.582Z,48.42
2022-11-30T05:16:23.407Z,45.92
2022-11-30T05:18:49.858Z,47.85
2022-11-30T05:21:16.300Z,48.35
2022-11-30T05:23:42.685Z,44.40
2022-11-30T05:26:09.160Z,42.05
2022-11-30T05:28:36.257Z,53.47
2022-11-30T05:31:04.302Z,45.88
2022-11-30T05:33:32.496Z,48.28
2022-11-30T05:35:58.998Z,52.40
2022-11-30T05:38:25.444Z,52.35
2022-11-30T05:40:51.915Z,48.92
2022-11-30T05:43:18.324Z,55.28
2022-11-30T05:45:44.765Z,49.78
2022-11-30T05:48:11.195Z,53.17
2022-11-30T05:50:38.937Z,53.17
2022-11-30T05:53:05.347Z,51.22
2022-11-30T05:55:31.930Z,47.67
2022-11-30T05:57:58.348Z,46.75
2022-11-30T06:00:25.294Z,43.35
2022-11-30T06:02:55.771Z,42.63
2022-11-30T06:05:22.229Z,46.40
2022-11-30T06:07:50.098Z,50.22
2022-11-30T06:10:17.031Z,48.60
2022-11-30T06:12:43.481Z,50.88
2022-11-30T06:15:10.994Z,50.78
2022-11-30T06:17:37.597Z,53.83
2022-11-30T06:20:04.520Z,51.67
2022-11-30T06:22:31.099Z,48.30
2022-11-30T06:24:58.930Z,51.80
2022-11-30T06:27:25.378Z,48.80
2022-11-30T06:29:51.798Z,48.92
2022-11-30T06:32:18.296Z,49.90
2022-11-30T06:34:44.865Z,57.42
2022-11-30T06:37:11.409Z,59.53
2022-11-30T06:40:04.882Z,54.20
2022-11-30T06:42:25.623Z,45.45
2022-11-30T06:44:52.105Z,52.13
2022-11-30T06:47:18.543Z,54.45
2022-11-30T06:49:45.108Z,57.97
2022-11-30T06:52:11.513Z,59.40
2022-11-30T06:54:38.008Z,58.60
2022-11-30T06:57:04.401Z,60.58
2022-11-30T06:59:32.181Z,65.22
2022-11-30T07:02:01.685Z,65.22
2022-11-30T07:06:59.743Z,58.85
2022-11-30T07:09:26.286Z,60.35
2022-11-30T07:11:52.727Z,58.72
2022-11-30T07:14:19.292Z,67.50
2022-11-30T07:16:47.165Z,68.72
2022-11-30T07:19:13.597Z,64.93
2022-11-30T07:21:40.017Z,66.25
2022-11-30T07:24:06.945Z,63.67
2022-11-30T07:26:33.480Z,63.90
2022-11-30T07:28:59.943Z,68.85
2022-11-30T07:31:28.090Z,61.17
2022-11-30T07:33:56.970Z,58.10
2022-11-30T07:36:25.581Z,59.97
2022-11-30T07:38:52.444Z,58.70
2022-11-30T07:41:19.111Z,60.47
2022-11-30T07:43:45.552Z,54.65
2022-11-30T07:46:14.076Z,60.63
2022-11-30T07:48:41.371Z,56.63
2022-11-30T07:51:12.763Z,58.13
2022-11-30T07:53:39.302Z,63.67
2022-11-30T07:56:07.655Z,65.13
2022-11-30T07:58:34.301Z,54.85
2022-11-30T08:01:02.232Z,52.25
2022-11-30T08:03:32.377Z,56.95
2022-11-30T08:06:04.266Z,61.10
2022-11-30T08:08:33.774Z,53.97
2022-11-30T08:11:01.415Z,59.10
2022-11-30T08:13:28.381Z,62.22
2022-11-30T08:15:54.981Z,63.92
2022-11-30T08:18:21.451Z,59.83
2022-11-30T08:20:50.170Z,64.85
2022-11-30T08:23:16.726Z,68.68
2022-11-30T08:25:44.462Z,65.32
2022-11-30T08:28:10.865Z,60.92
2022-11-30T08:30:37.334Z,66.25
2022-11-30T08:33:04.012Z,59.63
2022-11-30T08:35:30.420Z,61.13
2022-11-30T08:37:56.908Z,73.85
2022-11-30T08:40:23.358Z,70.90
2022-11-30T08:42:51.205Z,64.25
2022-11-30T08:45:17.833Z,61.15
2022-11-30T08:47:44.313Z,67.00
2022-11-30T08:50:10.949Z,69.05
2022-11-30T08:52:37.397Z,68.40
2022-11-30T08:55:04.412Z,75.40
2022-11-30T08:57:30.819Z,72.75
2022-11-30T08:59:58.563Z,68.90
2022-11-30T09:02:26.528Z,62.83
2022-11-30T09:04:52.973Z,70.93
2022-11-30T09:07:19.724Z,73.78
2022-11-30T09:09:46.249Z,74.00
2022-11-30T09:12:12.722Z,66.63
2022-11-30T09:14:39.157Z,64.50
2022-11-30T09:17:06.910Z,63.90
2022-11-30T09:19:33.501Z,73.70
2022-11-30T09:21:59.961Z,71.20
2022-11-30T09:24:26.435Z,69.55
2022-11-30T09:26:55.511Z,60.30
2022-11-30T09:29:22.282Z,65.35
2022-11-30T09:31:48.733Z,71.28
2022-11-30T09:34:16.499Z,66.47
2022-11-30T09:36:42.922Z,69.90
2022-11-30T09:39:09.584Z,73.93
2022-11-30T09:41:57.755Z,73.40
2022-11-30T09:44:32.580Z,71.97
2022-11-30T09:47:07.363Z,82.47
2022-11-30T09:49:37.469Z,76.10
2022-11-30T09:52:09.662Z,76.57
2022-11-30T09:54:38.909Z,83.25
2022-11-30T09:57:21.096Z,71.05
2022-11-30T09:59:54.455Z,79.32
2022-11-30T10:02:30.243Z,78.88
2022-11-30T10:04:58.682Z,76.63
2022-11-30T10:07:44.183Z,77.57
2022-11-30T10:10:37.473Z,75.47
2022-11-30T10:13:14.051Z,74.85
2022-11-30T10:15:52.936Z,73.00
2022-11-30T10:18:29.973Z,76.00
2022-11-30T10:21:07.518Z,87.60
2022-11-30T10:23:48.802Z,79.57
2022-11-30T10:26:16.421Z,77.68
2022-11-30T10:28:49.879Z,80.95
2022-11-30T10:31:17.690Z,84.72
2022-11-30T10:33:47.165Z,81.63
2022-11-30T10:36:23.309Z,77.95
2022-11-30T10:38:52.613Z,76.65
2022-11-30T10:41:24.852Z,83.00
2022-11-30T10:43:56.482Z,93.30
2022-11-30T10:46:28.051Z,82.05
2022-11-30T10:48:58.345Z,76.80
2022-11-30T10:51:27.592Z,84.10
2022-11-30T10:53:54.115Z,88.53
2022-11-30T10:56:20.498Z,88.30
2022-11-30T10:58:53.503Z,93.68
2022-11-30T11:01:32.682Z,82.13
2022-11-30T11:04:14.029Z,90.00
2022-11-30T11:06:45.024Z,93.78
2022-11-30T11:09:35.058Z,85.25
2022-11-30T11:12:04.198Z,83.65
2022-11-30T11:14:34.988Z,82.53
2022-11-30T11:17:06.367Z,82.85
2022-11-30T11:19:36.149Z,88.63
2022-11-30T11:22:06.773Z,86.65
2022-11-30T11:24:34.087Z,82.40
2022-11-30T11:27:00.851Z,87.18
2022-11-30T11:29:30.868Z,77.78
2022-11-30T11:32:07.245Z,85.75
2022-11-30T11:34:35.403Z,90.28
2022-11-30T11:37:12.730Z,88.88
2022-11-30T11:39:39.401Z,89.13
2022-11-30T11:42:17.746Z,88.40
2022-11-30T11:44:50.593Z,85.10
2022-11-30T11:47:24.426Z,98.85
2022-11-30T11:52:18.695Z,87.10
2022-11-30T11:54:49.241Z,91.32
2022-11-30T11:57:17.443Z,87.63
2022-11-30T11:59:49.510Z,88.38
2022-11-30T12:02:27.989Z,83.43
2022-11-30T12:04:58.991Z,81.55
2022-11-30T12:07:32.054Z,86.13
2022-11-30T12:13:15.239Z,88.68
2022-11-30T12:15:56.999Z,85.80
2022-11-30T12:18:28.541Z,89.35
2022-11-30T12:21:00.617Z,81.45
2022-11-30T12:23:52.419Z,82.03
2022-11-30T12:26:31.633Z,78.13
2022-11-30T12:29:16.149Z,78.82
2022-11-30T12:31:53.591Z,87.95
2022-11-30T12:34:30.473Z,82.65
2022-11-30T12:37:04.275Z,83.50
2022-11-30T12:42:11.511Z,74.10
2022-11-30T12:44:47.442Z,77.25
2022-11-30T12:47:27.356Z,85.13
2022-11-30T12:50:07.604Z,77.40
2022-11-30T12:52:44.033Z,86.88
2022-11-30T12:55:24.759Z,84.03
2022-11-30T12:58:05.764Z,86.53
2022-11-30T13:00:45.352Z,79.47
2022-11-30T13:03:45.563Z,86.53
2022-11-30T13:06:15.961Z,78.45
2022-11-30T13:08:51.026Z,77.68
2022-11-30T13:11:23.379Z,91.13
2022-11-30T13:13:52.503Z,77.25
2022-11-30T13:16:20.466Z,85.25
2022-11-30T13:18:47.756Z,86.32
2022-11-30T13:21:21.487Z,77.80
2022-11-30T13:23:55.027Z,79.03
2022-11-30T13:26:29.195Z,81.57
2022-11-30T13:29:07.299Z,82.05
2022-11-30T13:31:39.534Z,87.22
2022-11-30T13:34:22.950Z,88.93
2022-11-30T13:36:49.586Z,95.80
2022-11-30T13:39:22.845Z,83.47
2022-11-30T13:42:10.019Z,62.08
2022-11-30T13:44:38.555Z,80.40
2022-11-30T13:47:15.490Z,79.03
2022-11-30T13:49:42.352Z,74.18
2022-11-30T13:52:22.778Z,73.15
2022-11-30T13:54:52.028Z,63.08
2022-11-30T13:57:59.092Z,50.63
2022-11-30T14:01:19.716Z,52.42
2022-11-30T14:04:36.741Z,62.58
2022-11-30T14:07:03.296Z,66.35
2022-11-30T14:09:56.404Z,63.72
2022-11-30T14:12:46.676Z,53.60
2022-11-30T14:15:49.699Z,48.85
2022-11-30T14:18:22.761Z,54.33
2022-11-30T14:20:54.106Z,51.35
2022-11-30T14:23:26.078Z,46.38
2022-11-30T14:25:55.711Z,47.67
2022-11-30T14:28:25.296Z,46.80
2022-11-30T14:30:54.792Z,39.00
2022-11-30T14:33:27.197Z,41.53
2022-11-30T14:35:56.457Z,43.97
2022-11-30T14:38:25.478Z,41.63
2022-11-30T14:40:53.704Z,42.33
2022-11-30T14:43:20.316Z,46.95
2022-11-30T14:46:01.598Z,39.67
2022-11-30T14:48:32.777Z,48.25
2022-11-30T14:51:01.900Z,45.20
2022-11-30T14:53:35.887Z,45.55
2022-11-30T14:56:08.977Z,49.42
2022-11-30T14:58:43.172Z,46.60
2022-11-30T15:01:17.113Z,53.92
2022-11-30T15:03:45.991Z,42.65
2022-11-30T15:06:15.703Z,45.38
2022-11-30T15:08:45.891Z,43.67
2022-11-30T15:11:14.562Z,49.70
2022-11-30T15:13:43.599Z,48.20
2022-11-30T15:16:18.642Z,50.10
2022-11-30T15:18:46.876Z,52.70
2022-11-30T15:21:16.874Z,62.58
2022-11-30T15:23:46.720Z,58.80
2022-11-30T15:26:20.567Z,73.38
2022-11-30T15:28:54.583Z,70.40
2022-11-30T15:31:21.372Z,71.95
2022-11-30T15:33:50.564Z,72.63
2022-11-30T15:36:32.427Z,71.63
2022-11-30T15:39:02.341Z,65.18
2022-11-30T15:41:28.820Z,71.18
2022-11-30T15:43:56.930Z,62.72
2022-11-30T15:46:35.072Z,62.47
2022-11-30T15:49:15.639Z,65.45
2022-11-30T15:51:44.008Z,66.22
2022-11-30T15:54:10.634Z,59.80
2022-11-30T15:56:37.101Z,61.88
2022-11-30T15:59:06.447Z,61.17
2022-11-30T16:01:51.252Z,54.10
2022-11-30T16:04:19.068Z,52.92
2022-11-30T16:06:47.503Z,53.90
2022-11-30T16:09:19.510Z,58.40
2022-11-30T16:11:46.936Z,66.75
2022-11-30T16:14:15.363Z,62.53
2022-11-30T16:16:42.109Z,61.30
2022-11-30T16:19:09.243Z,62.78
2022-11-30T16:21:37.788Z,57.78
2022-11-30T16:24:04.942Z,63.17
2022-11-30T16:29:17.817Z,56.15
2022-11-30T16:31:44.247Z,56.08
2022-11-30T16:34:11.349Z,52.55
2022-11-30T16:36:39.290Z,49.80
2022-11-30T16:39:06.020Z,54.67
2022-11-30T16:41:34.614Z,53.30
2022-11-30T16:44:01.061Z,48.60
2022-11-30T16:46:28.868Z,52.50
2022-11-30T16:48:55.928Z,47.88
2022-11-30T16:51:26.223Z,48.05
2022-11-30T16:53:54.718Z,45.72
2022-11-30T16:56:21.389Z,46.58
2022-11-30T16:58:47.997Z,46.65
2022-11-30T17:01:18.850Z,50.47
2022-11-30T17:03:48.443Z,46.30
2022-11-30T17:06:17.919Z,47.92
2022-11-30T17:08:44.480Z,45.28
2022-11-30T17:11:16.988Z,50.65
2022-11-30T17:13:43.421Z,48.05
2022-11-30T17:16:10.323Z,48.45
2022-11-30T17:18:36.758Z,49.30
2022-11-30T17:21:03.330Z,52.67
2022-11-30T17:23:29.742Z,51.13
2022-11-30T17:25:56.511Z,49.58
2022-11-30T17:28:24.535Z,55.80
2022-11-30T17:30:51.083Z,47.90
2022-11-30T17:33:17.531Z,53.00
2022-11-30T17:35:43.975Z,47.83
2022-11-30T17:38:10.423Z,59.40
2022-11-30T17:40:39.205Z,51.10
2022-11-30T17:43:05.595Z,49.38
2022-11-30T17:45:33.462Z,51.42
2022-11-30T17:47:59.942Z,52.65
2022-11-30T17:50:26.467Z,51.88
2022-11-30T17:52:52.865Z,49.92
2022-11-30T17:55:19.258Z,46.30
2022-11-30T17:57:45.653Z,59.58
2022-11-30T18:00:12.936Z,55.78
2022-11-30T18:02:40.741Z,53.03
2022-11-30T18:05:07.950Z,52.65
2022-11-30T18:07:34.538Z,65.03
2022-11-30T18:10:01.016Z,64.97
2022-11-30T18:12:27.490Z,71.97
2022-11-30T18:14:53.973Z,73.53
2022-11-30T18:17:20.400Z,76.03
2022-11-30T18:19:48.219Z,79.47
2022-11-30T18:22:14.624Z,73.05
2022-11-30T18:24:41.052Z,80.57
2022-11-30T18:27:07.458Z,80.80
2022-11-30T18:29:33.902Z,81.63
2022-11-30T18:32:00.530Z,87.05
2022-11-30T18:34:27.139Z,80.00
2022-11-30T18:36:54.995Z,81.38
2022-11-30T18:39:21.447Z,77.95
2022-11-30T18:41:47.936Z,86.15
2022-11-30T18:44:14.427Z,84.80
2022-11-30T18:46:41.004Z,89.38
2022-11-30T18:49:07.542Z,85.93
2022-11-30T18:51:35.205Z,91.97
2022-11-30T18:54:05.103Z,92.88
2022-11-30T18:56:33.125Z,93.80
2022-11-30T18:59:01.559Z,95.43
2022-11-30T19:01:28.655Z,99.50
2022-11-30T19:03:56.973Z,91.75
2022-11-30T19:06:24.587Z,85.15
2022-11-30T19:08:51.297Z,94.30
2022-11-30T19:11:19.066Z,86.47
2022-11-30T19:13:45.711Z,90.90
2022-11-30T19:16:14.583Z,93.68
2022-11-30T19:18:41.128Z,90.55
2022-11-30T19:21:08.866Z,91.03
2022-11-30T19:23:35.863Z,92.55
2022-11-30T19:26:02.311Z,99.78
2022-11-30T19:28:31.512Z,98.88
2022-11-30T19:30:58.573Z,96.57
2022-11-30T19:33:25.471Z,82.68
2022-11-30T19:35:51.972Z,93.85
2022-11-30T19:38:18.500Z,93.70
2022-11-30T19:40:44.911Z,96.70
2022-11-30T19:43:11.368Z,95.55
2022-11-30T19:45:39.364Z,83.40
2022-11-30T19:48:05.926Z,91.35
2022-11-30T19:50:32.498Z,83.57
2022-11-30T19:52:58.939Z,76.85
2022-11-30T19:55:25.537Z,73.38
2022-11-30T19:57:51.970Z,76.22
2022-11-30T20:00:19.625Z,70.22
2022-11-30T20:02:47.427Z,73.75
2022-11-30T20:05:13.921Z,68.07
2022-11-30T20:07:40.392Z,68.68
2022-11-30T20:10:07.827Z,77.40
2022-11-30T20:12:34.247Z,75.38
2022-11-30T20:15:00.683Z,80.30
2022-11-30T20:17:27.097Z,77.22
2022-11-30T20:19:54.845Z,86.05
2022-11-30T20:22:21.238Z,74.25
2022-11-30T20:24:47.849Z,74.45
2022-11-30T20:27:14.618Z,73.45
2022-11-30T20:29:41.030Z,80.05
2022-11-30T20:32:07.456Z,78.38
2022-11-30T20:34:38.617Z,74.35
2022-11-30T20:37:08.783Z,77.80
2022-11-30T20:39:35.231Z,70.80
2022-11-30T20:42:01.608Z,76.80
2022-11-30T20:44:28.034Z,78.55
2022-11-30T20:46:54.477Z,80.05
2022-11-30T20:49:20.939Z,83.78
2022-11-30T20:51:48.012Z,87.35
2022-11-30T20:54:16.447Z,84.65
2022-11-30T20:56:43.183Z,84.20
2022-11-30T20:59:15.281Z,86.88
2022-11-30T21:01:43.986Z,85.63
2022-11-30T21:04:11.090Z,80.00
2022-11-30T21:06:37.501Z,77.20
2022-11-30T21:09:04.695Z,81.35
2022-11-30T21:11:32.465Z,80.80
2022-11-30T21:13:59.144Z,84.80
2022-11-30T21:16:28.603Z,82.40
2022-11-30T21:18:56.739Z,76.88
2022-11-30T21:21:27.169Z,75.82
2022-11-30T21:23:53.832Z,81.40
2022-11-30T21:26:21.993Z,81.22
2022-11-30T21:28:51.493Z,81.88
2022-11-30T21:31:17.953Z,80.68
2022-11-30T21:33:50.956Z,75.18
2022-11-30T21:36:19.407Z,78.13
2022-11-30T21:38:45.825Z,77.35
2022-11-30T21:41:14.136Z,70.25
2022-11-30T21:43:41.425Z,76.22
2022-11-30T21:46:12.547Z,75.03
2022-11-30T21:48:41.089Z,75.28
2022-11-30T21:51:09.770Z,74.63
2022-11-30T21:53:38.905Z,73.55
2022-11-30T21:56:07.707Z,72.72
2022-11-30T21:58:34.509Z,65.55
2022-11-30T22:01:02.605Z,65.28
2022-11-30T22:03:30.530Z,68.28
2022-11-30T22:05:58.401Z,78.43
2022-11-30T22:08:24.845Z,64.93
2022-11-30T22:10:51.270Z,64.05
2022-11-30T22:13:17.671Z,70.03
2022-11-30T22:15:44.111Z,63.95
2022-11-30T22:18:10.630Z,70.40
2022-11-30T22:20:38.395Z,61.70
2022-11-30T22:23:04.792Z,59.25
2022-11-30T22:25:31.229Z,69.63
2022-11-30T22:27:57.594Z,62.80
2022-11-30T22:30:24.006Z,61.55
2022-11-30T22:32:50.439Z,66.32
2022-11-30T22:35:16.833Z,64.43
2022-11-30T22:37:44.603Z,60.53
2022-11-30T22:40:12.226Z,66.32
2022-11-30T22:42:38.627Z,60.03
2022-11-30T22:45:06.686Z,59.05
2022-11-30T22:47:33.127Z,58.10
2022-11-30T22:49:59.563Z,55.65
2022-11-30T22:52:48.342Z,60.65
2022-11-30T22:55:13.986Z,61.55
2022-11-30T22:57:40.522Z,62.15
2022-11-30T23:00:08.491Z,59.55
2022-11-30T23:02:35.034Z,56.05
2022-11-30T23:05:01.510Z,59.03
2022-11-30T23:07:32.074Z,63.38
2022-11-30T23:09:58.794Z,60.47
2022-11-30T23:12:51.274Z,59.50
2022-11-30T23:15:13.311Z,55.70
2022-11-30T23:17:39.745Z,63.42
2022-11-30T23:20:07.418Z,60.97
2022-11-30T23:22:35.297Z,58.97
2022-11-30T23:25:01.758Z,57.60
2022-11-30T23:27:29.500Z,60.80
2022-11-30T23:29:56.110Z,61.20
2022-11-30T23:32:22.639Z,61.17
2022-11-30T23:34:50.757Z,60.05
2022-11-30T23:37:17.446Z,59.83
2022-11-30T23:39:43.843Z,59.22
2022-11-30T23:42:10.244Z,60.50
2022-11-30T23:44:38.017Z,58.92
2022-11-30T23:47:04.653Z,58.25
2022-11-30T23:49:31.223Z,59.20
2022-11-30T23:51:57.664Z,64.78
2022-11-30T23:54:24.166Z,60.50
2022-11-30T23:56:50.570Z,59.13
2022-11-30T23:59:17.044Z,52.92
